Time;durP1;ratioP1;P1;durP2;ratioP2;P2;SDS_P1;SDS_P2;PMS_P1;PMS_P2;Temp;Humidity;BMP_temperature;BMP_pressure;BME280_temperature;BME280_humidity;BME280_pressure;Samples;Min_cycle;Max_cycle;Signal;HPM_P1;HPM_P2
2022/06/14 00:01:14;;;;;;;9.95;2.63;;;12.40;99.90;;;;;;5070295;28;20044;-73
2022/06/14 00:03:42;;;;;;;5.50;3.05;;;12.50;99.90;;;;;;5069578;28;20504;-71
2022/06/14 00:06:09;;;;;;;4.63;1.90;;;12.40;99.90;;;;;;5080253;28;20048;-72
2022/06/14 00:08:35;;;;;;;9.50;2.83;;;12.30;99.90;;;;;;5069927;28;20053;-73
2022/06/14 00:11:28;;;;;;;6.78;3.28;;;12.30;99.90;;;;;;5056895;28;20048;-71
2022/06/14 00:13:56;;;;;;;6.70;2.92;;;12.30;99.90;;;;;;5082128;28;20129;-71
2022/06/14 00:16:23;;;;;;;4.50;2.70;;;12.80;99.90;;;;;;5071397;28;20504;-73
2022/06/14 00:18:49;;;;;;;11.20;3.50;;;12.20;99.90;;;;;;5070696;28;20052;-72
2022/06/14 00:21:16;;;;;;;9.32;2.88;;;12.20;99.90;;;;;;5081945;28;20051;-71
2022/06/14 00:23:41;;;;;;;8.90;3.20;;;12.00;99.90;;;;;;5050842;28;20572;-72
2022/06/14 00:26:09;;;;;;;6.20;2.00;;;12.10;99.90;;;;;;5070621;28;20052;-72
2022/06/14 00:28:35;;;;;;;6.32;2.13;;;12.20;99.90;;;;;;5071776;28;20040;-71
2022/06/14 00:31:04;;;;;;;8.57;1.92;;;12.00;99.90;;;;;;5061547;28;20186;-73
2022/06/14 00:33:30;;;;;;;8.25;2.58;;;12.20;99.90;;;;;;5062422;28;20102;-72
2022/06/14 00:35:59;;;;;;;6.20;2.15;;;11.90;99.90;;;;;;5086069;28;20060;-72
2022/06/14 00:38:24;;;;;;;9.75;2.97;;;12.50;99.90;;;;;;5073139;28;20053;-71
2022/06/14 00:40:54;;;;;;;8.02;3.25;;;11.80;99.90;;;;;;5075897;28;20102;-72
2022/06/14 00:43:21;;;;;;;5.40;2.90;;;11.80;99.90;;;;;;5065218;28;20056;-71
2022/06/14 00:45:48;;;;;;;;;;;11.80;99.90;;;;;;5074534;28;20052;-73
2022/06/14 00:48:23;;;;;;;3.92;2.47;;;11.80;99.90;;;;;;5080577;28;19926;-74
2022/06/14 00:50:58;;;;;;;7.38;2.30;;;12.30;99.90;;;;;;5093344;28;20131;-73
2022/06/14 00:53:30;;;;;;;5.78;2.50;;;11.80;99.90;;;;;;5048547;28;20417;-72
2022/06/14 00:56:02;;;;;;;7.30;2.47;;;11.70;99.90;;;;;;5074895;28;20053;-73
2022/06/14 00:58:40;;;;;;;11.32;2.72;;;11.70;99.90;;;;;;5074929;28;20056;-71
2022/06/14 01:01:28;;;;;;;8.15;2.65;;;12.30;99.90;;;;;;5087333;28;20457;-72
2022/06/14 01:04:03;;;;;;;7.65;2.72;;;11.60;99.90;;;;;;5076840;28;20064;-72
2022/06/14 01:06:56;;;;;;;6.28;2.75;;;11.60;99.90;;;;;;5085781;28;20082;-72
2022/06/14 01:09:29;;;;;;;6.25;2.40;;;11.60;99.90;;;;;;5062608;28;20501;-72
2022/06/14 01:12:11;;;;;;;6.70;3.03;;;11.70;99.90;;;;;;5076165;28;20462;-71
2022/06/14 01:15:05;;;;;;;6.18;2.55;;;11.50;99.90;;;;;;5078874;28;20122;-71
2022/06/14 01:17:34;;;;;;;6.18;2.88;;;11.50;99.90;;;;;;5078828;28;20052;-72
2022/06/14 01:19:59;;;;;;;5.57;2.13;;;11.50;99.90;;;;;;5094710;28;20075;-71
2022/06/14 01:22:28;;;;;;;9.25;2.67;;;11.40;99.90;;;;;;5083546;28;20532;-72
2022/06/14 01:24:54;;;;;;;8.07;2.38;;;11.40;99.90;;;;;;5064429;28;20139;-72
2022/06/14 01:27:22;;;;;;;5.75;3.10;;;11.40;99.90;;;;;;5057457;28;20102;-72
2022/06/14 01:29:59;;;;;;;5.57;2.50;;;11.40;99.90;;;;;;5063676;28;20055;-73
2022/06/14 01:32:28;;;;;;;8.63;2.28;;;11.40;99.90;;;;;;5083894;28;20052;-72
2022/06/14 01:34:59;;;;;;;6.00;2.33;;;11.30;99.90;;;;;;5093107;28;20055;-73
2022/06/14 01:37:25;;;;;;;9.77;2.45;;;11.40;99.90;;;;;;5095204;28;20412;-73
2022/06/14 01:39:52;;;;;;;10.23;3.13;;;11.30;99.90;;;;;;5062502;28;20045;-71
2022/06/14 01:42:36;;;;;;;7.72;2.25;;;11.30;99.90;;;;;;5073765;28;20504;-71
2022/06/14 01:45:25;;;;;;;5.63;2.70;;;11.30;99.90;;;;;;5080432;28;20044;-72
2022/06/14 01:47:57;;;;;;;5.40;2.42;;;11.20;99.90;;;;;;5092679;28;20052;-72
2022/06/14 01:53:52;;;;;;;5.88;2.63;;;11.20;99.90;;;;;;5059618;28;20464;-72
2022/06/14 01:56:20;;;;;;;10.38;3.20;;;11.20;99.90;;;;;;5040077;28;20494;-72
2022/06/14 01:58:48;;;;;;;5.65;2.33;;;11.20;99.90;;;;;;5059213;28;20102;-73
2022/06/14 02:01:17;;;;;;;6.75;2.38;;;11.20;99.90;;;;;;5073759;28;20052;-72
2022/06/14 02:07:18;;;;;;;11.00;2.38;;;11.20;99.90;;;;;;5084707;28;20074;-71
2022/06/14 02:10:10;;;;;;;8.90;3.13;;;11.20;99.90;;;;;;5089863;28;20549;-72
2022/06/14 02:12:58;;;;;;;4.82;2.28;;;11.10;99.90;;;;;;5094648;28;20058;-71
2022/06/14 02:15:38;;;;;;;7.15;2.75;;;11.10;99.90;;;;;;5083120;28;20055;-74
2022/06/14 02:18:10;;;;;;;7.72;2.35;;;11.00;99.90;;;;;;5053062;28;20141;-72
2022/06/14 02:20:56;;;;;;;6.70;2.97;;;11.00;99.90;;;;;;5093551;28;20059;-72
2022/06/14 02:23:25;;;;;;;7.88;2.50;;;11.00;99.90;;;;;;5087681;28;20497;-73
2022/06/14 02:26:05;;;;;;;6.35;2.55;;;11.00;99.90;;;;;;5075720;28;20059;-72
2022/06/14 02:28:53;;;;;;;10.77;2.70;;;10.90;99.90;;;;;;5088932;28;20500;-71
2022/06/14 02:31:33;;;;;;;12.23;3.08;;;10.90;99.90;;;;;;5073746;28;20048;-73
2022/06/14 02:34:03;;;;;;;7.53;2.90;;;10.90;99.90;;;;;;5083326;28;20052;-71
2022/06/14 02:36:48;;;;;;;5.22;2.63;;;10.90;99.90;;;;;;5084621;28;20056;-73
2022/06/14 02:39:36;;;;;;;4.80;2.53;;;10.90;99.90;;;;;;5062414;28;20057;-72
2022/06/14 02:42:19;;;;;;;8.18;2.80;;;10.90;99.90;;;;;;5069241;28;20756;-72
2022/06/14 02:45:15;;;;;;;8.63;2.72;;;10.90;99.90;;;;;;5082460;28;20084;-72
2022/06/14 02:47:54;;;;;;;8.93;2.75;;;10.80;99.90;;;;;;5082112;28;20055;-73
2022/06/14 02:50:30;;;;;;;9.23;3.20;;;10.80;99.90;;;;;;5064483;28;20051;-72
2022/06/14 02:53:08;;;;;;;10.32;3.08;;;10.70;99.90;;;;;;5075594;28;20139;-72
2022/06/14 02:55:48;;;;;;;4.50;2.33;;;10.70;99.90;;;;;;5092698;28;20059;-72
2022/06/14 02:58:32;;;;;;;9.27;3.42;;;10.70;99.90;;;;;;5072823;28;20057;-73
2022/06/14 03:01:03;;;;;;;9.27;2.45;;;10.70;99.90;;;;;;5085347;28;20052;-72
2022/06/14 03:03:44;;;;;;;7.97;3.00;;;10.70;99.90;;;;;;5056245;28;20562;-71
2022/06/14 03:06:24;;;;;;;5.78;2.78;;;10.70;99.90;;;;;;5053344;28;20136;-71
2022/06/14 03:09:04;;;;;;;7.75;2.90;;;11.30;99.90;;;;;;5050929;28;20056;-73
2022/06/14 03:11:46;;;;;;;9.00;2.53;;;10.70;99.90;;;;;;5071483;28;20589;-72
2022/06/14 03:14:47;;;;;;;13.88;3.05;;;10.70;99.90;;;;;;5048632;28;20198;-72
2022/06/14 03:17:46;;;;;;;3.80;3.17;;;10.70;99.90;;;;;;4984225;28;20057;-72
2022/06/14 03:20:16;;;;;;;9.25;3.03;;;10.70;99.90;;;;;;4991687;28;20129;-71
2022/06/14 03:23:20;;;;;;;7.63;3.17;;;11.50;99.90;;;;;;4989990;28;20503;-72
2022/06/14 03:25:57;;;;;;;8.63;2.53;;;10.80;99.90;;;;;;4975126;28;20061;-72
2022/06/14 03:28:30;;;;;;;7.25;2.50;;;10.80;99.90;;;;;;5011250;28;20133;-71
2022/06/14 03:31:10;;;;;;;4.22;2.55;;;10.80;99.90;;;;;;5011179;28;20109;-71
2022/06/14 03:33:49;;;;;;;8.38;3.53;;;10.90;99.90;;;;;;4992977;28;20058;-70
2022/06/14 03:36:16;;;;;;;11.25;2.67;;;11.50;99.90;;;;;;5009286;28;20054;-72
2022/06/14 03:38:48;;;;;;;8.05;2.05;;;10.80;99.90;;;;;;4993853;28;20077;-72
2022/06/14 03:41:19;;;;;;;6.82;2.42;;;11.00;99.90;;;;;;5011017;28;20053;-72
2022/06/14 03:43:45;;;;;;;5.43;2.47;;;11.00;99.90;;;;;;5011094;28;20050;-72
2022/06/14 03:46:25;;;;;;;9.10;2.35;;;11.40;99.90;;;;;;5011163;28;20149;-72
2022/06/14 03:49:20;;;;;;;6.32;2.50;;;10.80;99.90;;;;;;5012537;28;20058;-71
2022/06/14 03:51:57;;;;;;;7.28;2.30;;;10.80;99.90;;;;;;5011570;28;20067;-72
2022/06/14 03:54:31;;;;;;;5.30;2.78;;;10.80;99.90;;;;;;5060862;28;20385;-71
2022/06/14 03:57:42;;;;;;;7.95;2.80;;;10.80;99.90;;;;;;5052537;28;20497;-71
2022/06/14 04:00:17;;;;;;;4.45;1.95;;;10.80;99.90;;;;;;5068591;28;20048;-71
2022/06/14 04:03:08;;;;;;;6.53;2.80;;;10.80;99.90;;;;;;5034750;28;20057;-71
2022/06/14 04:06:12;;;;;;;7.10;3.30;;;10.80;99.90;;;;;;5052855;28;20048;-71
2022/06/14 04:09:01;;;;;;;10.13;2.72;;;10.80;99.90;;;;;;5071069;28;20412;-72
2022/06/14 04:11:48;;;;;;;5.40;2.88;;;10.80;99.90;;;;;;5074626;28;20045;-71
2022/06/14 04:14:51;;;;;;;6.38;2.53;;;10.80;99.90;;;;;;5049185;28;20052;-72
2022/06/14 04:17:40;;;;;;;11.15;3.75;;;10.80;99.90;;;;;;5058655;28;20052;-72
2022/06/14 04:20:13;;;;;;;7.88;2.90;;;10.80;99.90;;;;;;5058737;28;20134;-71
2022/06/14 04:23:01;;;;;;;13.80;3.00;;;10.80;99.90;;;;;;5058125;28;20505;-73
2022/06/14 04:25:54;;;;;;;6.82;2.63;;;10.80;99.90;;;;;;5080318;28;20044;-72
2022/06/14 04:28:41;;;;;;;7.82;3.00;;;11.10;99.90;;;;;;5074802;28;20115;-71
2022/06/14 04:31:37;;;;;;;10.60;2.58;;;10.80;99.90;;;;;;5089098;28;20105;-71
2022/06/14 04:34:09;;;;;;;6.20;2.40;;;10.90;99.90;;;;;;5087356;28;20435;-71
2022/06/14 04:37:01;;;;;;;9.40;2.40;;;10.90;99.90;;;;;;5090171;28;20052;-73
2022/06/14 04:39:43;;;;;;;6.28;2.53;;;10.90;99.90;;;;;;5080597;28;20119;-72
2022/06/14 04:42:23;;;;;;;8.23;2.78;;;11.00;99.90;;;;;;5038110;28;20053;-71
2022/06/14 04:45:04;;;;;;;5.97;2.15;;;11.00;99.90;;;;;;5073308;28;20052;-73
2022/06/14 04:47:43;;;;;;;4.75;2.45;;;11.00;99.90;;;;;;5096112;28;20105;-72
2022/06/14 04:50:19;;;;;;;12.27;2.88;;;11.00;99.90;;;;;;5055851;28;20057;-72
2022/06/14 04:53:11;;;;;;;8.88;3.53;;;11.10;99.90;;;;;;5073746;28;20053;-74
2022/06/14 04:55:48;;;;;;;4.90;3.20;;;11.10;99.90;;;;;;5075630;28;20141;-71
2022/06/14 04:58:42;;;;;;;6.95;2.85;;;11.10;99.90;;;;;;5056097;28;20060;-74
2022/06/14 05:01:14;;;;;;;7.32;2.92;;;11.20;99.90;;;;;;5087452;28;20504;-72
2022/06/14 05:03:46;;;;;;;8.02;2.97;;;12.30;99.90;;;;;;5097643;28;20092;-71
2022/06/14 05:06:17;;;;;;;8.75;3.15;;;11.20;99.90;;;;;;5075490;28;20135;-72
2022/06/14 05:09:03;;;;;;;9.43;4.05;;;11.20;99.90;;;;;;5084141;28;20417;-71
2022/06/14 05:11:45;;;;;;;6.60;3.30;;;11.30;99.90;;;;;;5089963;28;20098;-72
2022/06/14 05:14:19;;;;;;;8.90;3.40;;;11.30;99.90;;;;;;5094654;28;20127;-72
2022/06/14 05:17:03;;;;;;;8.68;3.30;;;11.40;99.90;;;;;;5054021;28;20516;-72
2022/06/14 05:19:37;;;;;;;12.18;3.78;;;11.40;99.90;;;;;;5055339;28;20132;-76
2022/06/14 05:22:10;;;;;;;6.85;2.90;;;11.50;99.90;;;;;;5059949;28;20123;-73
2022/06/14 05:24:37;;;;;;;8.98;3.25;;;11.50;99.90;;;;;;5073879;28;20094;-70
2022/06/14 05:27:15;;;;;;;12.55;3.50;;;11.60;99.90;;;;;;5075085;28;20616;-72
2022/06/14 05:29:54;;;;;;;10.38;3.25;;;11.60;99.90;;;;;;5055957;28;20056;-71
2022/06/14 05:32:35;;;;;;;7.57;3.78;;;11.70;99.90;;;;;;5090898;28;20117;-71
2022/06/14 05:35:07;;;;;;;7.70;3.40;;;11.70;99.90;;;;;;5095356;28;20370;-71
2022/06/14 05:37:46;;;;;;;8.88;3.15;;;11.80;99.90;;;;;;5095138;28;20052;-71
2022/06/14 05:40:24;;;;;;;8.57;3.20;;;11.90;99.90;;;;;;5069311;28;20060;-73
2022/06/14 05:43:13;;;;;;;7.30;3.58;;;11.90;99.90;;;;;;5071224;28;20087;-73
2022/06/14 05:45:44;;;;;;;8.25;3.20;;;12.00;99.90;;;;;;5074877;28;20083;-72
2022/06/14 05:48:16;;;;;;;9.25;3.60;;;12.00;99.90;;;;;;5056027;28;20060;-71
2022/06/14 05:50:46;;;;;;;6.80;2.85;;;12.20;99.90;;;;;;5057207;28;20048;-72
2022/06/14 05:53:24;;;;;;;8.20;2.95;;;12.10;99.90;;;;;;5073787;28;20084;-73
2022/06/14 05:56:01;;;;;;;11.52;3.17;;;12.10;99.90;;;;;;5073619;28;20134;-72
2022/06/14 05:58:34;;;;;;;9.73;2.90;;;12.30;99.90;;;;;;5080989;28;20065;-71
2022/06/14 06:01:12;;;;;;;9.13;3.10;;;12.20;99.90;;;;;;5074069;28;20421;-71
2022/06/14 06:03:54;;;;;;;6.65;2.50;;;12.20;99.90;;;;;;5073957;28;20040;-72
2022/06/14 06:06:29;;;;;;;10.20;3.95;;;12.30;99.90;;;;;;5071033;28;20055;-71
2022/06/14 06:09:08;;;;;;;9.13;3.05;;;12.40;99.90;;;;;;5090505;28;20086;-72
2022/06/14 06:11:49;;;;;;;7.78;3.63;;;12.40;99.90;;;;;;5094366;28;20048;-72
2022/06/14 06:14:20;;;;;;;9.60;3.10;;;12.50;99.90;;;;;;5075018;28;20451;-73
2022/06/14 06:19:48;;;;;;;5.88;2.97;;;12.60;99.90;;;;;;5049655;28;20049;-71
2022/06/14 06:22:28;;;;;;;16.35;3.55;;;12.60;99.90;;;;;;5059374;28;20562;-71
2022/06/14 06:25:09;;;;;;;6.97;2.80;;;12.70;99.90;;;;;;5074073;28;20122;-71
2022/06/14 06:28:12;;;;;;;6.00;2.67;;;12.80;99.90;;;;;;5073881;28;20048;-72
2022/06/14 06:31:00;;;;;;;5.75;2.30;;;12.80;99.90;;;;;;5011990;28;20509;-72
2022/06/14 06:33:29;;;;;;;7.85;2.03;;;12.90;99.90;;;;;;5013527;28;20062;-72
2022/06/14 06:36:23;;;;;;;5.63;1.60;;;12.90;99.90;;;;;;5037986;28;20057;-71
2022/06/14 06:39:13;;;;;;;7.13;1.90;;;13.00;99.90;;;;;;5031307;28;20128;-71
2022/06/14 06:41:49;;;;;;;5.80;1.50;;;13.10;99.90;;;;;;5028824;28;20053;-71
2022/06/14 06:44:50;;;;;;;7.75;2.10;;;13.10;99.90;;;;;;5031342;28;20060;-72
2022/06/14 06:47:23;;;;;;;9.27;2.28;;;13.20;99.90;;;;;;5031493;28;20064;-72
2022/06/14 06:50:20;;;;;;;8.93;2.38;;;13.70;99.90;;;;;;5031517;28;20498;-73
2022/06/14 06:53:04;;;;;;;6.55;1.50;;;13.30;99.90;;;;;;5031489;28;20053;-74
2022/06/14 06:55:45;;;;;;;2.42;1.30;;;13.40;99.90;;;;;;5031214;28;20132;-72
2022/06/14 06:58:36;;;;;;;10.60;1.67;;;13.50;99.90;;;;;;5031212;28;20153;-73
2022/06/14 07:01:25;;;;;;;4.68;1.60;;;13.60;99.90;;;;;;5036759;28;20264;-72
2022/06/14 07:03:56;;;;;;;2.65;1.63;;;13.60;99.90;;;;;;5030447;28;20045;-72
2022/06/14 07:06:26;;;;;;;10.70;2.50;;;13.70;99.90;;;;;;5030116;28;20053;-72
2022/06/14 07:09:09;;;;;;;4.63;1.25;;;13.70;99.90;;;;;;5061696;28;20048;-72
2022/06/14 07:11:40;;;;;;;9.20;2.20;;;13.80;99.90;;;;;;5071523;28;20060;-71
2022/06/14 07:14:23;;;;;;;3.45;1.17;;;13.90;99.90;;;;;;5062890;28;20048;-72
2022/06/14 07:17:14;;;;;;;5.60;1.60;;;13.90;99.90;;;;;;5075485;28;20058;-73
2022/06/14 07:19:53;;;;;;;5.82;1.20;;;14.00;99.90;;;;;;5042983;28;20079;-72
2022/06/14 07:22:30;;;;;;;7.40;1.38;;;14.00;99.90;;;;;;5074916;28;20109;-71
2022/06/14 07:25:18;;;;;;;5.97;1.05;;;14.10;99.90;;;;;;5093262;28;20052;-72
2022/06/14 07:28:00;;;;;;;5.25;1.50;;;14.10;99.90;;;;;;5064421;28;20063;-72
2022/06/14 07:30:32;;;;;;;6.80;2.78;;;14.20;99.90;;;;;;5093268;28;20059;-73
2022/06/14 07:32:59;;;;;;;3.33;1.52;;;14.30;99.90;;;;;;5075979;28;20109;-70
2022/06/14 07:35:42;;;;;;;5.05;1.20;;;14.40;99.90;;;;;;5079160;28;20044;-72
2022/06/14 07:38:24;;;;;;;4.40;1.75;;;14.50;99.90;;;;;;5087042;28;20056;-70
2022/06/14 07:41:22;;;;;;;5.20;1.40;;;14.40;99.90;;;;;;5109463;28;20126;-71
2022/06/14 07:43:54;;;;;;;;;;;14.50;99.90;;;;;;5058363;28;20121;-71
2022/06/14 07:46:37;;;;;;;6.57;1.35;;;14.60;99.90;;;;;;5068808;28;20044;-73
2022/06/14 07:49:16;;;;;;;5.60;1.65;;;14.70;99.90;;;;;;5100262;28;20054;-73
2022/06/14 07:51:57;;;;;;;4.32;1.30;;;14.70;99.90;;;;;;5089167;28;20089;-74
2022/06/14 07:54:32;;;;;;;4.57;1.00;;;14.70;99.90;;;;;;5096644;28;20052;-73
2022/06/14 07:57:22;;;;;;;6.22;1.30;;;14.70;99.90;;;;;;5081028;28;20048;-72
2022/06/14 08:03:23;;;;;;;4.85;1.50;;;14.80;99.90;;;;;;5071867;28;20080;-73
2022/06/14 08:05:51;;;;;;;6.15;1.40;;;14.80;99.90;;;;;;5108823;28;20052;-72
2022/06/14 08:08:23;;;;;;;5.97;1.20;;;14.80;99.90;;;;;;5095602;28;20499;-72
2022/06/14 08:10:54;;;;;;;6.07;1.30;;;14.80;99.90;;;;;;5104862;28;20587;-71
2022/06/14 08:13:26;;;;;;;4.38;1.13;;;14.80;99.90;;;;;;5098137;28;20504;-71
2022/06/14 08:15:55;;;;;;;5.90;1.17;;;14.90;99.90;;;;;;5088740;28;20094;-72
2022/06/14 08:18:22;;;;;;;6.15;1.58;;;14.90;99.90;;;;;;5103968;28;20455;-71
2022/06/14 08:21:02;;;;;;;5.30;1.38;;;15.00;99.90;;;;;;5115223;28;20457;-72
2022/06/14 08:23:50;;;;;;;4.22;1.52;;;15.00;99.90;;;;;;5086708;28;20059;-73
2022/06/14 08:26:21;;;;;;;4.78;1.52;;;15.00;99.90;;;;;;5068360;28;20055;-73
2022/06/14 08:29:01;;;;;;;2.88;0.80;;;15.00;99.90;;;;;;5087039;28;20060;-72
2022/06/14 08:31:36;;;;;;;5.97;1.20;;;15.00;99.90;;;;;;5079110;28;20059;-71
2022/06/14 08:34:39;;;;;;;5.68;1.60;;;15.00;99.90;;;;;;5094578;28;20568;-71
2022/06/14 08:37:21;;;;;;;6.63;1.17;;;15.00;99.90;;;;;;5075785;28;20073;-72
2022/06/14 08:40:20;;;;;;;2.45;1.25;;;15.00;99.90;;;;;;5094162;28;20130;-71
2022/06/14 08:42:56;;;;;;;2.08;1.02;;;15.00;99.90;;;;;;5095301;28;20052;-72
2022/06/14 08:45:27;;;;;;;3.78;0.80;;;15.10;99.90;;;;;;5057688;28;20421;-72
2022/06/14 08:48:29;;;;;;;2.47;0.88;;;15.20;99.90;;;;;;5094232;28;20055;-71
2022/06/14 08:51:30;;;;;;;5.13;1.20;;;15.30;99.90;;;;;;5094864;28;20048;-72
2022/06/14 08:54:24;;;;;;;6.47;0.80;;;15.40;99.90;;;;;;5090429;28;20090;-73
2022/06/14 08:57:11;;;;;;;5.70;1.45;;;15.40;99.90;;;;;;5075194;28;20462;-72
2022/06/14 08:59:56;;;;;;;6.07;1.98;;;15.50;99.90;;;;;;5090801;28;20056;-70
2022/06/14 09:02:37;;;;;;;25.40;2.78;;;15.40;99.90;;;;;;5093990;28;20048;-73
2022/06/14 09:05:21;;;;;;;3.80;0.73;;;15.40;99.90;;;;;;5079126;28;20052;-72
2022/06/14 09:07:47;;;;;;;8.52;1.20;;;15.40;99.90;;;;;;5093320;28;20052;-72
2022/06/14 09:10:30;;;;;;;4.88;1.20;;;15.40;99.90;;;;;;5093459;28;20063;-72
2022/06/14 09:13:09;;;;;;;2.83;1.30;;;15.40;99.90;;;;;;5093071;28;20056;-72
2022/06/14 09:15:45;;;;;;;6.03;1.00;;;15.40;99.90;;;;;;5086881;28;20074;-71
2022/06/14 09:18:53;;;;;;;3.53;1.10;;;15.50;99.90;;;;;;5094595;28;20519;-71
2022/06/14 09:21:32;;;;;;;;;;;15.50;99.90;;;;;;5094212;28;20055;-72
2022/06/14 09:24:27;;;;;;;3.67;0.90;;;15.60;99.90;;;;;;5069732;28;19971;-71
2022/06/14 09:27:04;;;;;;;2.90;1.08;;;15.70;99.90;;;;;;5089013;28;20047;-73
2022/06/14 09:29:41;;;;;;;;;;;15.80;99.90;;;;;;5077380;28;20060;-72
2022/06/14 09:32:25;;;;;;;3.63;0.80;;;15.90;99.90;;;;;;5093185;28;20003;-73
2022/06/14 09:35:22;;;;;;;2.40;1.30;;;16.00;99.90;;;;;;5088565;28;20527;-73
2022/06/14 09:38:02;;;;;;;4.35;0.88;;;16.10;99.90;;;;;;5064995;28;20048;-73
2022/06/14 09:40:37;;;;;;;1.80;0.70;;;16.10;99.90;;;;;;5089129;28;20056;-71
2022/06/14 09:43:24;;;;;;;4.93;0.80;;;16.10;99.90;;;;;;5085958;28;20051;-73
2022/06/14 09:45:59;;;;;;;6.43;1.20;;;16.00;99.90;;;;;;5070279;28;20140;-71
2022/06/14 09:48:52;;;;;;;5.38;1.02;;;16.00;99.90;;;;;;5055884;28;20064;-72
2022/06/14 09:51:37;;;;;;;4.45;0.98;;;16.00;99.90;;;;;;5087915;28;20525;-72
2022/06/14 09:54:30;;;;;;;2.47;0.85;;;16.00;99.90;;;;;;5090476;28;20404;-72
2022/06/14 09:57:20;;;;;;;4.70;0.70;;;16.20;99.90;;;;;;5063182;28;20052;-71
2022/06/14 10:00:14;;;;;;;1.85;0.68;;;16.20;99.90;;;;;;5067498;28;20075;-73
2022/06/14 10:02:52;;;;;;;2.45;0.80;;;16.30;99.90;;;;;;5057941;28;20114;-71
2022/06/14 10:05:26;;;;;;;3.67;0.90;;;16.30;99.90;;;;;;5091748;28;20048;-72
2022/06/14 10:08:07;;;;;;;2.50;0.80;;;16.30;99.90;;;;;;5087345;28;20052;-71
2022/06/14 10:10:57;;;;;;;2.17;0.70;;;16.30;99.90;;;;;;5083876;28;20531;-72
2022/06/14 10:13:35;;;;;;;4.55;0.88;;;16.30;99.90;;;;;;5074491;28;20056;-72
2022/06/14 10:16:25;;;;;;;2.13;0.80;;;16.30;99.90;;;;;;5093242;28;20058;-71
2022/06/14 10:19:05;;;;;;;4.15;0.77;;;16.30;99.90;;;;;;5091197;28;20060;-72
2022/06/14 10:21:40;;;;;;;5.97;0.73;;;16.30;99.90;;;;;;5077971;28;20135;-72
2022/06/14 10:24:17;;;;;;;1.73;0.60;;;16.30;99.90;;;;;;5043863;28;20098;-72
2022/06/14 10:30:52;;;;;;;2.22;0.70;;;16.30;99.90;;;;;;5063330;28;20063;-72
2022/06/14 10:33:43;;;;;;;4.72;0.75;;;16.30;99.90;;;;;;5007759;28;20058;-72
2022/06/14 10:36:24;;;;;;;1.20;0.75;;;16.30;99.90;;;;;;5017217;28;20160;-72
2022/06/14 10:39:22;;;;;;;4.82;0.70;;;16.30;99.90;;;;;;5017885;28;20072;-73
2022/06/14 10:42:21;;;;;;;5.10;0.65;;;16.30;99.90;;;;;;4936195;29;20580;-74
2022/06/14 10:44:53;;;;;;;5.95;0.88;;;16.30;99.90;;;;;;4950689;28;20472;-72
2022/06/14 10:47:28;;;;;;;5.60;1.23;;;16.30;99.90;;;;;;4943524;28;20152;-74
2022/06/14 10:49:59;;;;;;;3.58;0.70;;;16.30;99.90;;;;;;4950380;28;20149;-72
2022/06/14 10:52:46;;;;;;;3.28;0.65;;;16.30;99.90;;;;;;4938788;28;20098;-72
2022/06/14 10:55:54;;;;;;;1.45;0.75;;;16.30;99.90;;;;;;4939493;28;20103;-71
2022/06/14 10:58:51;;;;;;;5.80;0.93;;;16.30;99.90;;;;;;4899102;29;20149;-73
2022/06/14 11:01:31;;;;;;;1.13;0.60;;;16.40;99.90;;;;;;4884942;29;20075;-72
2022/06/14 11:04:18;;;;;;;2.08;0.70;;;16.40;99.90;;;;;;4895368;29;20048;-72
2022/06/14 11:07:25;;;;;;;4.32;0.75;;;16.40;99.90;;;;;;4905923;29;20090;-72
2022/06/14 11:10:12;;;;;;;6.03;0.77;;;16.40;99.90;;;;;;4933065;29;20501;-72
2022/06/14 11:13:05;;;;;;;1.85;0.77;;;16.50;99.90;;;;;;4916561;29;20519;-73
2022/06/14 11:15:52;;;;;;;0.95;0.55;;;16.50;99.90;;;;;;4933261;29;20056;-72
2022/06/14 11:18:36;;;;;;;;;;;16.60;99.90;;;;;;4959703;28;20050;-73
2022/06/14 11:21:38;;;;;;;2.50;0.85;;;16.70;99.90;;;;;;4961720;28;19922;-72
2022/06/14 11:24:14;;;;;;;2.17;0.60;;;16.60;99.90;;;;;;4963690;28;20058;-72
2022/06/14 11:26:52;;;;;;;4.45;1.20;;;16.60;99.90;;;;;;4979967;28;20065;-71
2022/06/14 11:29:35;;;;;;;4.28;1.00;;;16.70;99.90;;;;;;4955248;28;20091;-74
2022/06/14 11:32:13;;;;;;;2.22;0.80;;;16.70;99.90;;;;;;4971403;28;20062;-72
2022/06/14 11:35:02;;;;;;;1.60;0.88;;;16.70;99.90;;;;;;5074350;28;20048;-71
2022/06/14 11:37:52;;;;;;;2.75;0.90;;;16.70;99.90;;;;;;5085958;28;20063;-74
2022/06/14 11:40:23;;;;;;;4.72;1.65;;;16.70;99.90;;;;;;5072324;28;20529;-72
2022/06/14 11:43:22;;;;;;;2.42;0.85;;;16.70;99.90;;;;;;5048617;28;20124;-72
2022/06/14 11:45:57;;;;;;;4.90;1.13;;;16.70;99.90;;;;;;5070910;28;20053;-72
2022/06/14 11:48:32;;;;;;;3.30;0.90;;;16.90;99.90;;;;;;5081458;28;20126;-73
2022/06/14 11:51:41;;;;;;;2.83;0.90;;;16.80;99.90;;;;;;5037116;28;20067;-73
2022/06/14 11:54:10;;;;;;;3.13;0.90;;;16.80;99.90;;;;;;5059521;28;20052;-72
2022/06/14 11:57:14;;;;;;;2.50;0.90;;;16.80;99.90;;;;;;5050243;28;20119;-71
2022/06/14 12:00:18;;;;;;;4.13;1.08;;;16.80;99.90;;;;;;5029085;28;20079;-74
2022/06/14 12:03:06;;;;;;;5.63;0.70;;;16.80;99.90;;;;;;5030211;28;20391;-72
2022/06/14 12:05:40;;;;;;;3.50;1.10;;;16.80;99.90;;;;;;5048379;28;20056;-71
2022/06/14 12:08:34;;;;;;;8.38;1.27;;;16.80;99.90;;;;;;5038578;28;20125;-74
2022/06/14 12:11:25;;;;;;;0.85;0.60;;;16.80;99.90;;;;;;5049135;28;20124;-72
2022/06/14 12:14:02;;;;;;;2.13;0.90;;;16.90;99.90;;;;;;5032795;28;20050;-74
2022/06/14 12:16:39;;;;;;;2.20;0.90;;;16.90;99.90;;;;;;5030151;28;20053;-73
2022/06/14 12:19:29;;;;;;;3.08;0.85;;;17.00;99.90;;;;;;5029534;28;20057;-72
2022/06/14 12:22:50;;;;;;;1.75;0.85;;;17.00;99.90;;;;;;5027500;28;20056;-71
2022/06/14 12:27:41;;;;;;;2.58;0.70;;;17.00;99.90;;;;;;5028890;28;20433;-71
2022/06/14 12:30:09;;;;;;;6.72;1.52;;;17.10;99.90;;;;;;5029517;28;20061;-73
2022/06/14 12:32:41;;;;;;;5.38;1.00;;;17.10;99.90;;;;;;5029934;28;20128;-72
2022/06/14 12:35:15;;;;;;;3.65;1.00;;;17.10;99.90;;;;;;5037486;28;20067;-72
2022/06/14 12:38:02;;;;;;;1.60;0.85;;;17.10;99.90;;;;;;5067214;28;20582;-73
2022/06/14 12:40:43;;;;;;;5.18;0.90;;;17.10;99.90;;;;;;5062748;28;20063;-72
2022/06/14 12:43:09;;;;;;;3.60;1.08;;;17.10;99.90;;;;;;5075405;28;20049;-72
2022/06/14 12:45:42;;;;;;;2.22;1.00;;;17.10;99.90;;;;;;5075366;28;20053;-71
2022/06/14 12:48:11;;;;;;;5.63;1.10;;;17.20;99.90;;;;;;5074553;28;20088;-72
2022/06/14 12:50:43;;;;;;;4.97;0.90;;;17.20;99.90;;;;;;5069419;28;20053;-72
2022/06/14 12:53:21;;;;;;;3.38;1.10;;;17.30;99.90;;;;;;5094762;28;20058;-72
2022/06/14 12:55:53;;;;;;;3.15;0.90;;;17.30;99.90;;;;;;5074266;28;20056;-73
2022/06/14 12:58:34;;;;;;;3.08;0.90;;;17.40;99.90;;;;;;5071657;28;20048;-73
2022/06/14 13:01:28;;;;;;;2.08;0.80;;;17.40;99.90;;;;;;5081739;28;20066;-71
2022/06/14 13:03:59;;;;;;;3.47;0.80;;;17.40;99.90;;;;;;5073166;28;20088;-72
2022/06/14 13:06:34;;;;;;;3.15;0.90;;;17.50;99.90;;;;;;5066540;28;20083;-72
2022/06/14 13:09:03;;;;;;;4.75;1.52;;;17.60;99.90;;;;;;5057528;28;20052;-74
2022/06/14 13:11:52;;;;;;;2.10;0.70;;;17.60;99.90;;;;;;5072253;28;20104;-73
2022/06/14 13:14:23;;;;;;;3.22;0.90;;;17.60;99.90;;;;;;4977928;28;20106;-72
2022/06/14 13:17:10;;;;;;;3.03;0.70;;;17.60;99.90;;;;;;4976496;28;20047;-73
2022/06/14 13:19:47;;;;;;;3.17;0.98;;;17.70;99.90;;;;;;4978781;28;20061;-71
2022/06/14 13:22:52;;;;;;;11.90;2.08;;;17.70;99.90;;;;;;4989924;28;20058;-71
2022/06/14 13:25:41;;;;;;;2.00;0.82;;;17.70;99.90;;;;;;4993665;28;20072;-72
2022/06/14 13:28:30;;;;;;;26.50;4.80;;;17.70;99.90;;;;;;4993542;28;20065;-72
2022/06/14 13:31:22;;;;;;;22.15;3.70;;;17.80;99.90;;;;;;4993020;28;20438;-72
2022/06/14 13:34:18;;;;;;;3.15;1.63;;;17.70;99.90;;;;;;4993563;28;20054;-71
2022/06/14 13:36:52;;;;;;;4.13;1.52;;;17.80;99.90;;;;;;5008030;28;20093;-75
2022/06/14 13:39:42;;;;;;;4.10;1.30;;;17.80;99.90;;;;;;5012885;28;20092;-74
2022/06/14 13:42:30;;;;;;;5.38;1.55;;;17.90;99.90;;;;;;5012533;28;20072;-71
2022/06/14 13:44:58;;;;;;;4.13;1.50;;;17.90;99.90;;;;;;4999012;28;20609;-71
2022/06/14 13:47:38;;;;;;;4.45;1.35;;;17.90;99.90;;;;;;5012866;28;20054;-72
2022/06/14 13:50:20;;;;;;;5.57;1.52;;;17.80;99.90;;;;;;5005016;28;20058;-71
2022/06/14 13:53:04;;;;;;;5.45;1.45;;;17.90;99.90;;;;;;5090525;28;20056;-71
2022/06/14 13:55:39;;;;;;;6.55;1.30;;;17.90;99.90;;;;;;5076811;28;20092;-71
2022/06/14 13:58:14;;;;;;;3.17;0.98;;;17.90;99.90;;;;;;5094649;28;20412;-71
2022/06/14 14:00:52;;;;;;;4.78;1.52;;;17.90;99.90;;;;;;5094853;28;20055;-71
2022/06/14 14:03:36;;;;;;;7.25;1.33;;;17.90;99.90;;;;;;5094554;28;20059;-71
2022/06/14 14:06:14;;;;;;;4.47;0.88;;;17.90;99.90;;;;;;5094343;28;20056;-71
2022/06/14 14:09:11;;;;;;;5.63;1.90;;;18.00;99.90;;;;;;5076552;28;20411;-71
2022/06/14 14:11:52;;;;;;;3.53;1.00;;;18.00;99.90;;;;;;5094320;28;20092;-70
2022/06/14 14:14:49;;;;;;;4.43;1.00;;;18.10;99.90;;;;;;5093647;28;20407;-71
2022/06/14 14:17:51;;;;;;;2.17;1.10;;;18.10;99.90;;;;;;5076619;28;20066;-71